createdAt,value
2022-12-11T00:00:50.173Z,10.90
2022-12-11T00:03:17.814Z,13.40
2022-12-11T00:05:45.865Z,10.90
2022-12-11T00:08:13.741Z,12.20
2022-12-11T00:10:40.363Z,10.90
2022-12-11T00:13:06.746Z,12.00
2022-12-11T00:15:33.207Z,11.40
2022-12-11T00:17:59.761Z,11.60
2022-12-11T00:20:27.119Z,12.20
2022-12-11T00:22:53.476Z,12.80
2022-12-11T00:25:19.898Z,14.40
2022-12-11T00:27:47.159Z,14.60
2022-12-11T00:30:14.894Z,13.40
2022-12-11T00:32:41.377Z,14.40
2022-12-11T00:35:08.829Z,12.30
2022-12-11T00:37:35.579Z,12.00
2022-12-11T00:40:02.020Z,12.10
2022-12-11T00:42:28.576Z,11.80
2022-12-11T00:44:56.372Z,13.30
2022-12-11T00:47:22.749Z,10.10
2022-12-11T00:49:50.167Z,13.40
2022-12-11T00:52:17.912Z,13.70
2022-12-11T00:54:45.101Z,12.60
2022-12-11T00:57:11.621Z,10.10
2022-12-11T00:59:38.154Z,10.70
2022-12-11T01:02:04.696Z,12.90
2022-12-11T01:04:31.132Z,12.30
2022-12-11T01:06:57.530Z,11.80
2022-12-11T01:09:42.692Z,12.30
2022-12-11T01:12:09.206Z,12.60
2022-12-11T01:14:35.700Z,13.50
2022-12-11T01:17:02.185Z,13.70
2022-12-11T01:19:28.772Z,13.20
2022-12-11T01:21:55.204Z,10.90
2022-12-11T01:24:21.675Z,10.70
2022-12-11T01:26:48.258Z,8.10
2022-12-11T01:29:15.377Z,11.00
2022-12-11T01:31:41.821Z,10.80
2022-12-11T01:34:08.234Z,12.20
2022-12-11T01:36:34.704Z,10.50
2022-12-11T01:39:01.249Z,10.60
2022-12-11T01:41:27.672Z,9.20
2022-12-11T01:44:30.661Z,9.70
2022-12-11T01:46:57.036Z,17.20
2022-12-11T01:49:27.591Z,8.50
2022-12-11T01:52:06.032Z,9.20
2022-12-11T01:54:33.036Z,12.90
2022-12-11T01:57:05.971Z,11.50
2022-12-11T01:59:39.079Z,12.10
2022-12-11T02:02:18.865Z,10.60
2022-12-11T02:04:47.118Z,12.20
2022-12-11T02:07:13.599Z,12.40
2022-12-11T02:09:43.238Z,12.30
2022-12-11T02:12:21.869Z,12.20
2022-12-11T02:15:34.698Z,9.70
2022-12-11T02:18:20.690Z,11.00
2022-12-11T02:21:08.244Z,12.50
2022-12-11T02:24:08.332Z,17.80
2022-12-11T02:27:35.204Z,19.50
2022-12-11T02:30:08.056Z,14.70
2022-12-11T02:32:49.945Z,13.90
2022-12-11T02:35:36.219Z,14.60
2022-12-11T02:38:12.832Z,11.50
2022-12-11T02:40:43.583Z,19.10
2022-12-11T02:43:14.979Z,14.90
2022-12-11T02:45:46.145Z,13.10
2022-12-11T02:48:14.884Z,12.30
2022-12-11T02:50:50.348Z,12.40
2022-12-11T02:53:22.461Z,12.20
2022-12-11T02:56:03.742Z,9.90
2022-12-11T02:58:37.666Z,11.00
2022-12-11T03:01:04.565Z,9.70
2022-12-11T03:03:31.084Z,11.70
2022-12-11T03:05:57.503Z,11.70
2022-12-11T03:08:24.056Z,12.30
2022-12-11T03:10:50.659Z,8.80
2022-12-11T03:13:22.447Z,10.80
2022-12-11T03:16:19.807Z,10.60
2022-12-11T03:19:21.318Z,10.80
2022-12-11T03:21:59.139Z,12.00
2022-12-11T03:24:43.916Z,11.60
2022-12-11T03:27:26.691Z,12.70
2022-12-11T03:30:04.461Z,12.70
2022-12-11T03:32:40.584Z,8.30
2022-12-11T03:35:18.182Z,11.70
2022-12-11T03:37:48.237Z,10.60
2022-12-11T03:40:20.457Z,9.80
2022-12-11T03:42:52.669Z,11.10
2022-12-11T03:45:23.897Z,6.50
2022-12-11T03:48:00.647Z,6.20
2022-12-11T03:50:32.189Z,9.40
2022-12-11T03:53:00.529Z,11.10
2022-12-11T03:55:30.491Z,7.90
2022-12-11T03:57:57.102Z,5.50
2022-12-11T04:00:23.682Z,10.90
2022-12-11T04:03:13.596Z,10.40
2022-12-11T04:05:54.630Z,9.80
2022-12-11T04:08:23.111Z,9.30
2022-12-11T04:11:11.101Z,9.00
2022-12-11T04:13:39.344Z,10.90
2022-12-11T04:16:06.941Z,9.10
2022-12-11T04:18:52.999Z,9.40
2022-12-11T04:21:39.830Z,11.40
2022-12-11T04:24:16.519Z,10.70
2022-12-11T04:26:45.358Z,7.90
2022-12-11T04:29:12.633Z,9.70
2022-12-11T04:31:39.599Z,7.70
2022-12-11T04:34:06.207Z,10.70
2022-12-11T04:36:32.585Z,9.80
2022-12-11T04:38:59.016Z,9.40
2022-12-11T04:41:25.467Z,6.50
2022-12-11T04:43:51.941Z,10.70
2022-12-11T04:46:22.213Z,11.90
2022-12-11T04:48:55.372Z,9.40
2022-12-11T04:51:23.399Z,10.30
2022-12-11T04:53:49.840Z,9.50
2022-12-11T04:56:17.029Z,11.10
2022-12-11T04:58:45.096Z,14.10
2022-12-11T05:01:16.643Z,10.70
2022-12-11T05:03:43.222Z,10.70
2022-12-11T05:06:11.841Z,6.80
2022-12-11T05:08:40.893Z,11.20
2022-12-11T05:11:12.327Z,12.40
2022-12-11T05:13:39.402Z,11.50
2022-12-11T05:16:08.860Z,10.40
2022-12-11T05:18:35.891Z,11.00
2022-12-11T05:21:07.143Z,10.90
2022-12-11T05:23:34.855Z,10.80
2022-12-11T05:26:07.329Z,7.80
2022-12-11T05:28:38.104Z,12.80
2022-12-11T05:31:09.188Z,11.70
2022-12-11T05:33:35.596Z,13.60
2022-12-11T05:36:02.767Z,13.10
2022-12-11T05:38:29.504Z,12.20
2022-12-11T05:41:03.157Z,11.00
2022-12-11T05:43:34.086Z,10.60
2022-12-11T05:46:16.931Z,11.30
2022-12-11T05:48:46.814Z,10.20
2022-12-11T05:51:16.139Z,12.40
2022-12-11T05:53:44.731Z,10.30
2022-12-11T05:56:27.301Z,11.40
2022-12-11T05:58:55.425Z,9.00
2022-12-11T06:01:48.108Z,11.80
2022-12-11T06:04:14.699Z,11.60
2022-12-11T06:06:41.409Z,12.10
2022-12-11T06:09:08.125Z,14.10
2022-12-11T06:11:35.631Z,11.60
2022-12-11T06:14:03.834Z,11.80
2022-12-11T06:16:31.683Z,13.10
2022-12-11T06:18:58.794Z,23.30
2022-12-11T06:21:32.588Z,14.90
2022-12-11T06:24:03.172Z,15.80
2022-12-11T06:26:31.892Z,15.60
2022-12-11T06:28:58.378Z,12.10
2022-12-11T06:31:24.837Z,11.10
2022-12-11T06:33:51.345Z,13.70
2022-12-11T06:36:22.375Z,15.10
2022-12-11T06:38:48.941Z,14.00
2022-12-11T06:41:16.091Z,8.00
2022-12-11T06:43:43.149Z,12.30
2022-12-11T06:46:14.588Z,8.10
2022-12-11T06:48:42.331Z,9.60
2022-12-11T06:51:18.477Z,7.10
2022-12-11T06:53:49.980Z,13.60
2022-12-11T06:56:16.452Z,9.70
2022-12-11T06:58:44.000Z,13.20
2022-12-11T07:01:21.474Z,12.80
2022-12-11T07:03:48.713Z,11.40
2022-12-11T07:06:16.352Z,10.10
2022-12-11T07:08:43.493Z,6.70
2022-12-11T07:11:14.173Z,8.20
2022-12-11T07:13:42.109Z,9.30
2022-12-11T07:16:11.844Z,6.10
2022-12-11T07:18:41.416Z,8.90
2022-12-11T07:21:10.197Z,6.50
2022-12-11T07:23:37.009Z,7.70
2022-12-11T07:26:15.196Z,8.30
2022-12-11T07:28:42.236Z,7.90
2022-12-11T07:31:13.171Z,7.00
2022-12-11T07:33:40.191Z,10.90
2022-12-11T07:36:10.066Z,9.00
2022-12-11T07:38:36.918Z,8.50
2022-12-11T07:41:07.576Z,9.20
2022-12-11T07:43:35.253Z,8.20
2022-12-11T07:46:07.922Z,8.70
2022-12-11T07:48:39.959Z,8.20
2022-12-11T07:51:16.791Z,8.40
2022-12-11T07:53:49.024Z,7.20
2022-12-11T07:56:16.845Z,7.00
2022-12-11T07:58:44.259Z,8.80
2022-12-11T08:01:26.416Z,9.00
2022-12-11T08:03:53.859Z,7.30
2022-12-11T08:06:26.236Z,7.10
2022-12-11T08:08:55.104Z,9.00
2022-12-11T08:11:21.533Z,8.70
2022-12-11T08:13:48.651Z,8.50
2022-12-11T08:16:17.015Z,7.50
2022-12-11T08:18:45.751Z,7.50
2022-12-11T08:21:16.209Z,7.20
2022-12-11T08:23:43.175Z,10.60
2022-12-11T08:26:16.918Z,9.50
2022-12-11T08:28:43.933Z,11.90
2022-12-11T08:31:13.863Z,10.90
2022-12-11T08:33:41.913Z,10.40
2022-12-11T08:36:12.270Z,8.40
2022-12-11T08:38:39.165Z,10.30
2022-12-11T08:41:18.004Z,8.90
2022-12-11T08:43:45.193Z,10.50
2022-12-11T08:46:13.602Z,8.70
2022-12-11T08:48:43.649Z,10.60
2022-12-11T08:51:14.739Z,9.80
2022-12-11T08:53:41.664Z,9.40
2022-12-11T08:56:12.110Z,9.10
2022-12-11T08:58:38.609Z,8.60
2022-12-11T09:01:11.221Z,9.60
2022-12-11T09:03:39.473Z,6.50
2022-12-11T09:06:18.518Z,6.10
2022-12-11T09:08:52.269Z,9.80
2022-12-11T09:11:24.635Z,8.00
2022-12-11T09:13:51.742Z,7.30
2022-12-11T09:16:22.460Z,9.70
2022-12-11T09:18:52.614Z,9.30
2022-12-11T09:21:23.144Z,9.00
2022-12-11T09:23:53.236Z,11.30
2022-12-11T09:26:20.166Z,13.60
2022-12-11T09:28:47.433Z,8.10
2022-12-11T09:31:19.277Z,10.10
2022-12-11T09:33:46.729Z,7.10
2022-12-11T09:36:13.720Z,11.00
2022-12-11T09:38:40.207Z,10.50
2022-12-11T09:41:22.042Z,10.60
2022-12-11T09:44:20.572Z,9.20
2022-12-11T09:46:48.021Z,7.10
2022-12-11T09:49:27.288Z,8.70
2022-12-11T09:52:14.113Z,10.80
2022-12-11T09:54:50.160Z,10.30
2022-12-11T09:57:22.635Z,6.00
2022-12-11T10:00:19.105Z,10.00
2022-12-11T10:03:15.798Z,7.70
2022-12-11T10:06:10.167Z,8.50
2022-12-11T10:09:47.205Z,9.00
2022-12-11T10:12:59.600Z,6.80
2022-12-11T10:15:41.867Z,7.20
2022-12-11T10:18:21.251Z,9.60
2022-12-11T10:20:50.667Z,10.80
2022-12-11T10:23:24.341Z,9.80
2022-12-11T10:26:07.369Z,10.20
2022-12-11T10:28:35.607Z,10.40
2022-12-11T10:31:42.507Z,12.30
2022-12-11T10:34:19.273Z,8.60
2022-12-11T10:36:46.154Z,10.30
2022-12-11T10:39:20.306Z,11.20
2022-12-11T10:41:51.241Z,11.60
2022-12-11T10:44:27.413Z,10.30
2022-12-11T10:47:15.523Z,12.40
2022-12-11T10:49:58.171Z,13.00
2022-12-11T10:52:46.545Z,16.30
2022-12-11T10:55:25.885Z,11.10
2022-12-11T10:58:01.708Z,9.90
2022-12-11T11:00:39.650Z,11.50
2022-12-11T11:03:53.250Z,14.20
2022-12-11T11:06:22.047Z,12.50
2022-12-11T11:08:56.194Z,12.00
2022-12-11T11:11:34.248Z,14.10
2022-12-11T11:14:10.185Z,10.80
2022-12-11T11:16:40.090Z,10.40
2022-12-11T11:19:07.328Z,9.30
2022-12-11T11:21:35.891Z,9.00
2022-12-11T11:24:03.561Z,8.30
2022-12-11T11:27:04.395Z,9.90
2022-12-11T11:29:34.327Z,11.10
2022-12-11T11:32:17.859Z,10.70
2022-12-11T11:34:44.292Z,9.70
2022-12-11T11:37:35.119Z,7.90
2022-12-11T11:40:27.017Z,8.30
2022-12-11T11:43:10.951Z,7.60
2022-12-11T11:45:51.476Z,5.70
2022-12-11T11:48:37.401Z,6.60
2022-12-11T11:51:15.855Z,7.50
2022-12-11T11:53:49.581Z,8.70
2022-12-11T11:56:36.187Z,7.20
2022-12-11T11:59:21.151Z,9.20
2022-12-11T12:01:47.776Z,7.90
2022-12-11T12:04:14.832Z,5.60
2022-12-11T12:07:10.077Z,8.20
2022-12-11T12:09:53.229Z,8.60
2022-12-11T12:12:57.523Z,6.50
2022-12-11T12:15:50.295Z,6.90
2022-12-11T12:18:39.866Z,7.50
2022-12-11T12:21:36.253Z,8.50
2022-12-11T12:24:11.976Z,6.60
2022-12-11T12:27:22.803Z,9.60
2022-12-11T12:30:21.981Z,8.20
2022-12-11T12:33:15.129Z,8.40
2022-12-11T12:36:07.292Z,8.50
2022-12-11T12:38:54.368Z,8.20
2022-12-11T12:41:37.907Z,7.70
2022-12-11T12:44:15.397Z,9.30
2022-12-11T12:47:22.822Z,7.70
2022-12-11T12:49:53.193Z,7.30
2022-12-11T12:52:38.616Z,7.50
2022-12-11T12:55:14.420Z,7.80
2022-12-11T12:57:57.450Z,6.90
2022-12-11T13:00:36.464Z,7.50
2022-12-11T13:03:20.800Z,8.20
2022-12-11T13:06:02.820Z,8.30
2022-12-11T13:08:39.724Z,6.20
2022-12-11T13:11:10.824Z,9.90
2022-12-11T13:13:41.772Z,9.90
2022-12-11T13:16:17.089Z,9.60
2022-12-11T13:18:47.565Z,8.70
2022-12-11T13:21:28.147Z,9.30
2022-12-11T13:24:12.495Z,8.40
2022-12-11T13:26:40.043Z,8.00
2022-12-11T13:29:06.492Z,9.50
2022-12-11T13:31:44.250Z,7.80
2022-12-11T13:34:20.974Z,11.50
2022-12-11T13:36:54.812Z,9.60
2022-12-11T13:39:25.040Z,9.70
2022-12-11T13:42:06.571Z,10.10
2022-12-11T13:44:42.444Z,10.20
2022-12-11T13:47:16.914Z,10.20
2022-12-11T13:49:49.876Z,8.30
2022-12-11T13:52:27.686Z,7.00
2022-12-11T13:54:59.161Z,7.60
2022-12-11T13:57:28.711Z,7.80
2022-12-11T13:59:59.664Z,7.50
2022-12-11T14:02:40.083Z,7.60
2022-12-11T14:05:10.897Z,6.60
2022-12-11T14:07:49.967Z,7.20
2022-12-11T14:10:32.992Z,8.70
2022-12-11T14:12:59.308Z,8.70
2022-12-11T14:15:28.740Z,7.10
2022-12-11T14:17:57.801Z,8.50
2022-12-11T14:20:29.144Z,7.20
2022-12-11T14:23:28.703Z,7.00
2022-12-11T14:26:14.978Z,7.90
2022-12-11T14:28:43.243Z,7.70
2022-12-11T14:31:18.537Z,8.20
2022-12-11T14:33:52.818Z,8.00
2022-12-11T14:36:20.740Z,8.10
2022-12-11T14:38:58.879Z,8.80
2022-12-11T14:41:46.210Z,7.70
2022-12-11T14:44:17.734Z,6.70
2022-12-11T14:46:51.457Z,6.70
2022-12-11T14:49:24.533Z,7.70
2022-12-11T14:51:55.383Z,7.50
2022-12-11T14:54:41.015Z,6.60
2022-12-11T14:57:17.561Z,7.60
2022-12-11T14:59:48.274Z,7.40
2022-12-11T15:02:32.606Z,7.90
2022-12-11T15:05:19.369Z,8.70
2022-12-11T15:08:09.897Z,8.10
2022-12-11T15:10:42.469Z,7.80
2022-12-11T15:13:10.300Z,9.40
2022-12-11T15:15:46.024Z,9.50
2022-12-11T15:18:26.036Z,9.80
2022-12-11T15:21:00.455Z,3.80
2022-12-11T15:23:28.364Z,9.40
2022-12-11T15:26:01.809Z,8.00
2022-12-11T15:28:36.343Z,10.00
2022-12-11T15:31:08.115Z,8.70
2022-12-11T15:33:47.856Z,9.20
2022-12-11T15:36:31.339Z,9.90
2022-12-11T15:38:58.895Z,9.20
2022-12-11T15:41:25.902Z,8.30
2022-12-11T15:43:58.996Z,9.80
2022-12-11T15:46:26.557Z,6.00
2022-12-11T15:48:55.254Z,9.70
2022-12-11T15:51:22.822Z,10.00
2022-12-11T15:53:49.727Z,10.60
2022-12-11T15:56:16.860Z,10.20
2022-12-11T15:58:47.132Z,11.60
2022-12-11T16:01:13.523Z,11.70
2022-12-11T16:03:40.785Z,9.70
2022-12-11T16:06:12.006Z,10.70
2022-12-11T16:08:38.551Z,10.40
2022-12-11T16:11:05.105Z,10.80
2022-12-11T16:13:31.684Z,11.90
2022-12-11T16:15:58.434Z,11.60
2022-12-11T16:18:26.359Z,8.60
2022-12-11T16:20:53.095Z,10.20
2022-12-11T16:23:20.107Z,12.30
2022-12-11T16:25:47.726Z,10.30
2022-12-11T16:28:18.048Z,11.60
2022-12-11T16:30:45.337Z,11.60
2022-12-11T16:33:13.512Z,9.80
2022-12-11T16:35:42.839Z,10.40
2022-12-11T16:38:10.428Z,11.30
2022-12-11T16:40:37.730Z,10.70
2022-12-11T16:43:05.575Z,10.70
2022-12-11T16:45:33.049Z,10.70
2022-12-11T16:48:04.325Z,10.50
2022-12-11T16:50:32.124Z,9.90
2022-12-11T16:52:58.541Z,11.50
2022-12-11T16:55:24.956Z,12.00
2022-12-11T16:57:51.382Z,12.00
2022-12-11T17:00:17.970Z,12.20
2022-12-11T17:02:44.532Z,12.40
2022-12-11T17:05:11.295Z,11.20
2022-12-11T17:07:37.903Z,10.10
2022-12-11T17:10:05.144Z,11.40
2022-12-11T17:12:31.783Z,13.40
2022-12-11T17:14:58.388Z,13.60
2022-12-11T17:17:25.738Z,12.60
2022-12-11T17:19:52.195Z,10.00
2022-12-11T17:22:19.416Z,12.20
2022-12-11T17:24:45.847Z,11.00
2022-12-11T17:27:12.662Z,11.70
2022-12-11T17:29:39.226Z,11.90
2022-12-11T17:32:06.007Z,14.40
2022-12-11T17:34:37.773Z,12.90
2022-12-11T17:37:06.041Z,48.70
2022-12-11T17:39:33.207Z,29.70
2022-12-11T17:41:59.816Z,13.00
2022-12-11T17:44:26.917Z,34.90
2022-12-11T17:46:53.693Z,27.90
2022-12-11T17:49:20.264Z,14.20
2022-12-11T17:51:47.793Z,18.10
2022-12-11T17:54:14.248Z,16.00
2022-12-11T17:56:40.706Z,12.40
2022-12-11T17:59:07.147Z,11.10
2022-12-11T18:01:34.779Z,11.60
2022-12-11T18:04:02.432Z,12.50
2022-12-11T18:06:30.122Z,14.10
2022-12-11T18:08:57.307Z,13.00
2022-12-11T18:11:24.344Z,15.90
2022-12-11T18:13:53.212Z,16.30
2022-12-11T18:16:30.876Z,18.50
2022-12-11T18:18:57.539Z,13.80
2022-12-11T18:21:33.588Z,12.90
2022-12-11T18:24:01.636Z,12.70
2022-12-11T18:26:29.048Z,17.00
2022-12-11T18:28:55.523Z,17.60
2022-12-11T18:31:23.424Z,14.40
2022-12-11T18:33:50.264Z,14.10
2022-12-11T18:36:18.478Z,11.10
2022-12-11T18:38:45.054Z,10.10
2022-12-11T18:41:16.641Z,10.00
2022-12-11T18:43:43.189Z,10.10
2022-12-11T18:46:14.244Z,9.70
2022-12-11T18:48:43.083Z,8.20
2022-12-11T18:51:13.952Z,13.20
2022-12-11T18:53:41.070Z,14.00
2022-12-11T18:56:12.863Z,16.00
2022-12-11T18:58:39.791Z,19.60
2022-12-11T19:01:13.980Z,13.60
2022-12-11T19:03:40.376Z,16.20
2022-12-11T19:06:10.667Z,20.40
2022-12-11T19:08:37.076Z,18.40
2022-12-11T19:11:04.192Z,14.10
2022-12-11T19:13:30.980Z,13.70
2022-12-11T19:15:57.418Z,12.50
2022-12-11T19:18:24.533Z,15.90
2022-12-11T19:21:00.450Z,13.20
2022-12-11T19:23:33.027Z,13.50
2022-12-11T19:25:59.443Z,18.00
2022-12-11T19:28:25.859Z,14.80
2022-12-11T19:30:52.374Z,15.30
2022-12-11T19:33:18.883Z,17.50
2022-12-11T19:35:45.536Z,16.50
2022-12-11T19:38:12.927Z,17.70
2022-12-11T19:40:44.412Z,18.00
2022-12-11T19:43:11.455Z,15.20
2022-12-11T19:45:38.516Z,21.20
2022-12-11T19:48:05.846Z,21.50
2022-12-11T19:50:35.491Z,21.00
2022-12-11T19:53:01.964Z,18.30
2022-12-11T19:55:28.794Z,18.30
2022-12-11T19:57:55.509Z,14.50
2022-12-11T20:00:21.916Z,14.90
2022-12-11T20:02:49.100Z,13.00
2022-12-11T20:05:15.995Z,16.10
2022-12-11T20:07:44.517Z,15.80
2022-12-11T20:10:11.497Z,14.20
2022-12-11T20:12:38.170Z,16.90
2022-12-11T20:15:06.061Z,14.60
2022-12-11T20:17:33.377Z,14.30
2022-12-11T20:19:59.980Z,15.80
2022-12-11T20:22:26.382Z,18.70
2022-12-11T20:24:52.800Z,19.10
2022-12-11T20:27:19.341Z,18.70
2022-12-11T20:29:45.729Z,14.80
2022-12-11T20:32:12.356Z,17.70
2022-12-11T20:34:39.445Z,18.80
2022-12-11T20:37:05.955Z,15.10
2022-12-11T20:39:32.362Z,15.10
2022-12-11T20:41:59.557Z,17.10
2022-12-11T20:44:25.971Z,15.60
2022-12-11T20:46:52.331Z,15.80
2022-12-11T20:49:18.728Z,16.40
2022-12-11T20:51:45.136Z,17.50
2022-12-11T20:54:11.799Z,17.20
2022-12-11T20:56:38.704Z,19.00
2022-12-11T20:59:05.157Z,20.00
2022-12-11T21:01:32.938Z,21.30
2022-12-11T21:03:59.970Z,19.70
2022-12-11T21:06:31.761Z,20.70
2022-12-11T21:09:07.305Z,17.80
2022-12-11T21:11:34.115Z,17.80
2022-12-11T21:14:00.783Z,15.50
2022-12-11T21:16:28.213Z,14.30
2022-12-11T21:18:57.428Z,15.70
2022-12-11T21:21:24.711Z,14.00
2022-12-11T21:23:51.270Z,17.80
2022-12-11T21:26:18.284Z,18.60
2022-12-11T21:28:44.728Z,16.10
2022-12-11T21:31:17.702Z,16.80
2022-12-11T21:33:46.088Z,14.80
2022-12-11T21:36:15.269Z,16.80
2022-12-11T21:38:44.048Z,16.10
2022-12-11T21:41:16.406Z,17.70
2022-12-11T21:46:33.325Z,18.10
2022-12-11T21:48:59.732Z,13.90
2022-12-11T21:51:35.925Z,13.00
2022-12-11T21:54:06.537Z,12.30
2022-12-11T21:56:33.255Z,11.90
2022-12-11T21:59:01.327Z,13.90
2022-12-11T22:01:38.892Z,15.30
2022-12-11T22:04:05.604Z,17.30
2022-12-11T22:06:33.024Z,19.40
2022-12-11T22:08:59.558Z,16.10
2022-12-11T22:11:31.471Z,14.60
2022-12-11T22:13:58.125Z,16.80
2022-12-11T22:16:24.892Z,14.10
2022-12-11T22:18:51.606Z,15.50
2022-12-11T22:21:18.456Z,17.70
2022-12-11T22:23:45.926Z,11.60
2022-12-11T22:26:20.553Z,7.30
2022-12-11T22:28:47.394Z,12.70
2022-12-11T22:31:16.816Z,13.60
2022-12-11T22:33:43.614Z,14.00
2022-12-11T22:36:10.895Z,14.50
2022-12-11T22:38:37.396Z,14.20
2022-12-11T22:41:22.353Z,13.50
2022-12-11T22:43:49.662Z,13.80
2022-12-11T22:46:17.662Z,13.10
2022-12-11T22:48:44.289Z,14.40
2022-12-11T22:51:10.822Z,11.30
2022-12-11T22:53:37.368Z,14.40
2022-12-11T22:56:08.935Z,11.40
2022-12-11T22:58:36.055Z,10.50
2022-12-11T23:01:07.624Z,12.30
2022-12-11T23:03:34.054Z,11.30
2022-12-11T23:06:05.009Z,13.40
2022-12-11T23:08:31.786Z,12.50
2022-12-11T23:10:58.368Z,13.90
2022-12-11T23:13:24.748Z,11.90
2022-12-11T23:15:51.163Z,11.10
2022-12-11T23:18:17.611Z,13.20
2022-12-11T23:20:44.059Z,10.70
2022-12-11T23:23:10.887Z,9.70
2022-12-11T23:25:37.402Z,10.80
2022-12-11T23:28:03.809Z,11.20
2022-12-11T23:30:30.384Z,9.70
2022-12-11T23:32:56.974Z,11.50
2022-12-11T23:35:23.376Z,10.80
2022-12-11T23:37:49.756Z,11.80
2022-12-11T23:40:16.413Z,11.40
2022-12-11T23:42:42.907Z,9.80
2022-12-11T23:45:09.890Z,11.50
2022-12-11T23:47:36.516Z,11.40
2022-12-11T23:50:04.120Z,13.30
2022-12-11T23:52:30.560Z,12.90
2022-12-11T23:54:57.016Z,8.20
2022-12-11T23:57:23.460Z,14.20
2022-12-11T23:59:49.978Z,13.30
